createdAt,value
2023-05-21T00:01:43.921Z,2.35
2023-05-21T00:04:15.783Z,2.75
2023-05-21T00:06:44.240Z,2.90
2023-05-21T00:09:14.063Z,2.75
2023-05-21T00:11:42.452Z,2.65
2023-05-21T00:14:10.947Z,2.90
2023-05-21T00:16:39.608Z,2.90
2023-05-21T00:19:08.227Z,3.20
2023-05-21T00:21:36.666Z,2.83
2023-05-21T00:24:05.081Z,3.22
2023-05-21T00:26:34.767Z,2.90
2023-05-21T00:29:03.274Z,3.33
2023-05-21T00:31:33.821Z,3.38
2023-05-21T00:34:02.296Z,3.42
2023-05-21T00:36:31.320Z,3.20
2023-05-21T00:38:59.732Z,3.38
2023-05-21T00:41:30.292Z,3.88
2023-05-21T00:44:00.425Z,3.35
2023-05-21T00:46:29.589Z,3.50
2023-05-21T00:48:59.081Z,3.45
2023-05-21T00:51:30.342Z,3.63
2023-05-21T00:53:59.949Z,3.10
2023-05-21T00:56:29.401Z,3.60
2023-05-21T00:59:00.494Z,3.35
2023-05-21T01:01:34.205Z,2.97
2023-05-21T01:04:04.127Z,3.55
2023-05-21T01:06:34.802Z,4.03
2023-05-21T01:09:06.613Z,3.60
2023-05-21T01:11:42.657Z,3.38
2023-05-21T01:14:15.661Z,3.53
2023-05-21T01:16:48.356Z,3.38
2023-05-21T01:19:20.107Z,3.55
2023-05-21T01:21:53.206Z,3.92
2023-05-21T01:24:24.331Z,4.30
2023-05-21T01:26:54.270Z,3.53
2023-05-21T01:29:24.533Z,4.18
2023-05-21T01:32:01.060Z,4.45
2023-05-21T01:34:37.380Z,4.05
2023-05-21T01:37:19.800Z,3.60
2023-05-21T01:39:58.940Z,3.80
2023-05-21T01:42:30.781Z,4.15
2023-05-21T01:45:04.845Z,4.07
2023-05-21T01:47:35.079Z,4.10
2023-05-21T01:50:04.604Z,4.32
2023-05-21T01:52:33.537Z,4.13
2023-05-21T01:55:04.845Z,4.63
2023-05-21T01:57:33.753Z,4.00
2023-05-21T02:00:02.969Z,4.20
2023-05-21T02:02:32.344Z,4.22
2023-05-21T02:05:04.597Z,4.63
2023-05-21T02:07:34.061Z,4.18
2023-05-21T02:10:04.769Z,4.38
2023-05-21T02:12:33.739Z,4.30
2023-05-21T02:15:03.168Z,4.30
2023-05-21T02:17:34.527Z,4.70
2023-05-21T02:20:11.618Z,4.47
2023-05-21T02:22:41.551Z,4.15
2023-05-21T02:25:14.261Z,4.35
2023-05-21T02:27:44.665Z,4.35
2023-05-21T02:30:16.999Z,4.55
2023-05-21T02:32:49.144Z,4.20
2023-05-21T02:35:18.102Z,4.30
2023-05-21T02:37:46.383Z,3.80
2023-05-21T02:40:16.341Z,4.00
2023-05-21T02:42:44.684Z,3.95
2023-05-21T02:45:14.074Z,3.97
2023-05-21T02:47:43.011Z,3.95
2023-05-21T02:50:11.322Z,3.85
2023-05-21T02:52:39.687Z,3.97
2023-05-21T02:55:09.760Z,4.38
2023-05-21T02:57:40.062Z,3.75
2023-05-21T03:00:10.613Z,3.90
2023-05-21T03:02:38.968Z,3.83
2023-05-21T03:05:08.841Z,3.80
2023-05-21T03:07:37.087Z,3.65
2023-05-21T03:10:06.545Z,3.53
2023-05-21T03:12:34.809Z,3.97
2023-05-21T03:15:04.738Z,3.60
2023-05-21T03:17:33.149Z,3.83
2023-05-21T03:20:01.647Z,3.50
2023-05-21T03:22:29.985Z,3.80
2023-05-21T03:24:58.328Z,4.00
2023-05-21T03:27:27.101Z,4.07
2023-05-21T03:29:56.330Z,4.00
2023-05-21T03:32:26.143Z,4.18
2023-05-21T03:34:54.620Z,3.88
2023-05-21T03:37:22.922Z,4.45
2023-05-21T03:39:51.402Z,4.25
2023-05-21T03:42:19.760Z,4.03
2023-05-21T03:44:48.118Z,3.92
2023-05-21T03:47:16.911Z,4.03
2023-05-21T03:49:47.171Z,4.43
2023-05-21T03:52:18.898Z,4.57
2023-05-21T03:54:48.610Z,4.05
2023-05-21T03:57:17.169Z,4.20
2023-05-21T03:59:45.688Z,4.13
2023-05-21T04:02:14.035Z,4.68
2023-05-21T04:04:43.425Z,4.75
2023-05-21T04:07:15.489Z,5.28
2023-05-21T04:09:43.897Z,4.95
2023-05-21T04:12:12.323Z,4.63
2023-05-21T04:14:41.002Z,4.88
2023-05-21T04:17:09.783Z,4.95
2023-05-21T04:19:38.178Z,5.15
2023-05-21T04:22:06.934Z,5.10
2023-05-21T04:24:38.091Z,5.20
2023-05-21T04:27:07.165Z,5.15
2023-05-21T04:29:35.434Z,5.50
2023-05-21T04:32:03.913Z,5.60
2023-05-21T04:34:34.119Z,4.80
2023-05-21T04:37:03.340Z,5.40
2023-05-21T04:39:32.314Z,5.55
2023-05-21T04:42:03.478Z,5.20
2023-05-21T04:44:31.986Z,5.30
2023-05-21T04:47:01.074Z,5.40
2023-05-21T04:49:30.087Z,5.28
2023-05-21T04:52:02.021Z,5.35
2023-05-21T04:54:30.720Z,5.10
2023-05-21T04:57:00.451Z,4.97
2023-05-21T04:59:30.734Z,5.55
2023-05-21T05:01:59.416Z,5.05
2023-05-21T05:04:28.716Z,5.50
2023-05-21T05:06:57.589Z,5.03
2023-05-21T05:12:11.862Z,5.40
2023-05-21T05:14:49.049Z,5.30
2023-05-21T05:17:19.249Z,5.75
2023-05-21T05:19:48.137Z,5.65
2023-05-21T05:22:17.451Z,5.43
2023-05-21T05:24:48.504Z,6.05
2023-05-21T05:27:31.039Z,5.28
2023-05-21T05:30:05.729Z,5.70
2023-05-21T05:32:37.789Z,5.43
2023-05-21T05:35:09.246Z,5.32
2023-05-21T05:37:38.431Z,5.40
2023-05-21T05:40:12.586Z,6.10
2023-05-21T05:42:41.920Z,5.82
2023-05-21T05:48:20.875Z,6.30
2023-05-21T05:56:47.609Z,6.32
2023-05-21T06:10:15.280Z,6.10
2023-05-21T06:12:47.431Z,5.60
2023-05-21T06:18:13.301Z,5.97
2023-05-21T06:20:43.084Z,5.97
2023-05-21T06:23:15.892Z,5.65
2023-05-21T06:25:46.615Z,5.80
2023-05-21T06:28:16.006Z,6.22
2023-05-21T06:30:44.581Z,6.25
2023-05-21T06:33:13.113Z,5.72
2023-05-21T06:35:41.623Z,5.57
2023-05-21T06:38:09.981Z,6.35
2023-05-21T06:40:38.423Z,5.93
2023-05-21T06:43:08.292Z,6.18
2023-05-21T06:45:36.795Z,6.32
2023-05-21T06:48:06.137Z,5.75
2023-05-21T06:50:34.452Z,6.20
2023-05-21T06:53:02.953Z,6.88
2023-05-21T06:55:31.284Z,5.97
2023-05-21T06:57:59.814Z,6.25
2023-05-21T07:00:32.446Z,6.07
2023-05-21T07:03:00.893Z,6.65
2023-05-21T07:05:29.532Z,6.30
2023-05-21T07:08:00.596Z,6.60
2023-05-21T07:10:28.935Z,6.10
2023-05-21T07:12:57.265Z,6.03
2023-05-21T07:15:25.888Z,5.75
2023-05-21T07:17:58.855Z,5.90
2023-05-21T07:20:28.642Z,6.03
2023-05-21T07:22:58.048Z,6.78
2023-05-21T07:25:27.919Z,5.55
2023-05-21T07:27:57.513Z,5.70
2023-05-21T07:30:26.570Z,5.88
2023-05-21T07:32:57.061Z,5.55
2023-05-21T07:35:26.344Z,5.72
2023-05-21T07:37:54.742Z,5.57
2023-05-21T07:40:23.202Z,5.53
2023-05-21T07:42:54.401Z,6.25
2023-05-21T07:45:22.934Z,6.30
2023-05-21T07:47:51.714Z,5.60
2023-05-21T07:50:24.765Z,6.50
2023-05-21T07:52:53.351Z,6.00
2023-05-21T07:55:22.040Z,6.07
2023-05-21T07:57:53.808Z,6.15
2023-05-21T08:00:25.309Z,6.15
2023-05-21T08:02:53.759Z,5.93
2023-05-21T08:05:24.530Z,6.15
2023-05-21T08:07:53.870Z,5.72
2023-05-21T08:10:27.025Z,5.75
2023-05-21T08:12:56.163Z,5.45
2023-05-21T08:15:25.809Z,5.53
2023-05-21T08:17:54.466Z,6.07
2023-05-21T08:20:24.414Z,5.63
2023-05-21T08:22:53.458Z,5.70
2023-05-21T08:25:23.422Z,5.97
2023-05-21T08:27:52.528Z,5.68
2023-05-21T08:30:21.456Z,6.10
2023-05-21T08:32:50.563Z,5.80
2023-05-21T08:35:20.911Z,5.90
2023-05-21T08:37:53.890Z,6.07
2023-05-21T08:40:22.572Z,5.82
2023-05-21T08:42:53.724Z,5.40
2023-05-21T08:45:25.162Z,5.60
2023-05-21T08:47:58.415Z,5.80
2023-05-21T08:50:31.209Z,5.03
2023-05-21T08:53:19.783Z,5.45
2023-05-21T08:55:58.493Z,5.43
2023-05-21T08:58:27.285Z,5.65
2023-05-21T09:00:57.335Z,5.63
2023-05-21T09:03:26.947Z,4.97
2023-05-21T09:05:56.934Z,5.35
2023-05-21T09:08:36.070Z,5.13
2023-05-21T09:11:05.132Z,5.50
2023-05-21T09:13:38.991Z,5.15
2023-05-21T09:16:14.667Z,5.15
2023-05-21T09:18:43.937Z,5.32
2023-05-21T09:21:26.967Z,5.65
2023-05-21T09:24:02.181Z,5.28
2023-05-21T09:29:01.212Z,5.18
2023-05-21T09:31:31.429Z,5.72
2023-05-21T09:33:59.716Z,5.93
2023-05-21T09:36:29.454Z,5.50
2023-05-21T09:39:00.329Z,5.13
2023-05-21T09:41:36.933Z,5.05
2023-05-21T09:44:05.890Z,5.38
2023-05-21T09:46:40.335Z,5.80
2023-05-21T09:49:23.153Z,5.40
2023-05-21T09:51:51.493Z,5.30
2023-05-21T09:54:24.194Z,5.70
2023-05-21T09:56:53.465Z,5.72
2023-05-21T09:59:22.201Z,5.57
2023-05-21T10:01:55.572Z,5.28
2023-05-21T10:04:24.777Z,5.82
2023-05-21T10:06:53.958Z,5.63
2023-05-21T10:09:24.601Z,5.72
2023-05-21T10:11:55.562Z,5.70
2023-05-21T10:14:26.670Z,5.45
2023-05-21T10:16:57.022Z,5.50
2023-05-21T10:19:26.218Z,5.15
2023-05-21T10:21:57.251Z,5.07
2023-05-21T10:24:28.275Z,5.13
2023-05-21T10:26:57.098Z,5.07
2023-05-21T10:29:26.404Z,5.18
2023-05-21T10:31:56.052Z,5.05
2023-05-21T10:34:25.581Z,5.65
2023-05-21T10:36:55.455Z,5.25
2023-05-21T10:39:25.354Z,4.95
2023-05-21T10:42:07.031Z,5.22
2023-05-21T10:44:53.037Z,5.38
2023-05-21T10:48:17.960Z,5.50
2023-05-21T10:51:21.131Z,4.88
2023-05-21T10:54:23.783Z,4.93
2023-05-21T10:57:14.415Z,5.18
2023-05-21T10:59:47.597Z,5.07
2023-05-21T11:02:19.179Z,5.43
2023-05-21T11:04:50.618Z,5.60
2023-05-21T11:07:25.396Z,5.35
2023-05-21T11:09:56.134Z,5.47
2023-05-21T11:12:27.334Z,4.78
2023-05-21T11:14:59.182Z,5.38
2023-05-21T11:17:44.518Z,5.15
2023-05-21T11:20:15.184Z,4.75
2023-05-21T11:22:43.838Z,4.53
2023-05-21T11:25:12.672Z,5.00
2023-05-21T11:27:43.901Z,4.55
2023-05-21T11:30:17.603Z,4.97
2023-05-21T11:33:19.754Z,5.32
2023-05-21T11:36:00.384Z,4.88
2023-05-21T11:38:31.133Z,4.72
2023-05-21T11:41:05.286Z,4.90
2023-05-21T11:43:35.093Z,4.57
2023-05-21T11:46:04.153Z,4.93
2023-05-21T11:48:35.024Z,5.63
2023-05-21T11:51:05.027Z,5.50
2023-05-21T11:53:33.451Z,5.05
2023-05-21T11:56:05.907Z,5.20
2023-05-21T11:58:36.937Z,4.97
2023-05-21T12:01:06.568Z,5.63
2023-05-21T12:03:41.907Z,4.93
2023-05-21T12:06:10.349Z,5.13
2023-05-21T12:08:39.321Z,5.43
2023-05-21T12:11:07.673Z,4.68
2023-05-21T12:13:37.382Z,5.38
2023-05-21T12:16:07.862Z,4.70
2023-05-21T12:18:37.988Z,5.60
2023-05-21T12:21:06.970Z,5.50
2023-05-21T12:23:35.276Z,6.00
2023-05-21T12:26:04.195Z,5.72
2023-05-21T12:28:33.299Z,5.72
2023-05-21T12:31:02.909Z,6.00
2023-05-21T12:33:35.850Z,6.22
2023-05-21T12:36:04.431Z,7.93
2023-05-21T12:38:32.693Z,6.30
2023-05-21T12:41:05.888Z,5.07
2023-05-21T12:43:34.930Z,5.50
2023-05-21T12:46:04.628Z,5.82
2023-05-21T12:48:32.924Z,5.03
2023-05-21T12:51:01.171Z,5.32
2023-05-21T12:53:38.957Z,4.93
2023-05-21T12:56:11.948Z,5.65
2023-05-21T12:58:40.425Z,4.78
2023-05-21T13:01:11.234Z,5.25
2023-05-21T13:03:42.614Z,5.40
2023-05-21T13:06:10.842Z,4.53
2023-05-21T13:08:39.599Z,5.03
2023-05-21T13:11:07.781Z,5.60
2023-05-21T13:13:35.925Z,5.13
2023-05-21T13:16:04.238Z,4.93
2023-05-21T13:18:33.927Z,4.75
2023-05-21T13:21:02.192Z,4.65
2023-05-21T13:23:30.343Z,4.20
2023-05-21T13:25:58.536Z,4.10
2023-05-21T13:28:26.712Z,4.30
2023-05-21T13:30:56.000Z,3.90
2023-05-21T13:33:24.488Z,4.13
2023-05-21T13:35:54.213Z,4.00
2023-05-21T13:38:22.397Z,4.00
2023-05-21T13:40:50.690Z,3.70
2023-05-21T13:43:18.794Z,3.90
2023-05-21T13:46:06.016Z,4.30
2023-05-21T13:48:34.256Z,4.03
2023-05-21T13:51:03.765Z,3.67
2023-05-21T13:53:32.097Z,3.10
2023-05-21T13:56:00.504Z,3.53
2023-05-21T13:58:34.415Z,3.65
2023-05-21T14:01:03.029Z,4.30
2023-05-21T14:03:31.363Z,3.85
2023-05-21T14:05:59.845Z,4.03
2023-05-21T14:08:29.497Z,3.85
2023-05-21T14:10:57.726Z,3.90
2023-05-21T14:13:27.242Z,3.97
2023-05-21T14:15:55.767Z,4.38
2023-05-21T14:18:23.912Z,4.13
2023-05-21T14:20:52.078Z,3.97
2023-05-21T14:23:20.280Z,4.63
2023-05-21T14:25:49.857Z,3.65
2023-05-21T14:28:18.040Z,4.65
2023-05-21T14:30:46.213Z,4.60
2023-05-21T14:33:14.494Z,3.92
2023-05-21T14:35:44.023Z,4.30
2023-05-21T14:38:12.288Z,4.07
2023-05-21T14:40:40.864Z,4.15
2023-05-21T14:43:10.387Z,4.07
2023-05-21T14:45:38.796Z,4.50
2023-05-21T14:48:09.344Z,4.10
2023-05-21T14:50:37.763Z,4.28
2023-05-21T14:53:06.749Z,4.45
2023-05-21T14:55:37.034Z,3.95
2023-05-21T14:58:06.456Z,3.55
2023-05-21T15:00:37.348Z,4.22
2023-05-21T15:03:06.210Z,3.95
2023-05-21T15:05:34.657Z,3.97
2023-05-21T15:08:03.992Z,4.90
2023-05-21T15:10:32.180Z,4.03
2023-05-21T15:13:00.533Z,4.30
2023-05-21T15:15:28.873Z,3.70
2023-05-21T15:17:58.667Z,3.95
2023-05-21T15:20:26.975Z,4.03
2023-05-21T15:23:05.073Z,3.90
2023-05-21T15:25:43.558Z,4.22
2023-05-21T15:28:12.935Z,4.18
2023-05-21T15:30:41.323Z,4.00
2023-05-21T15:33:12.277Z,4.07
2023-05-21T15:35:41.060Z,3.95
2023-05-21T15:38:09.624Z,4.18
2023-05-21T15:40:40.082Z,6.30
2023-05-21T15:43:08.252Z,4.63
2023-05-21T15:45:36.795Z,4.47
2023-05-21T15:48:05.765Z,4.40
2023-05-21T15:50:36.061Z,4.18
2023-05-21T15:53:05.280Z,4.10
2023-05-21T15:55:34.180Z,4.28
2023-05-21T15:58:04.188Z,3.75
2023-05-21T16:00:32.510Z,4.65
2023-05-21T16:03:00.923Z,5.30
2023-05-21T16:05:29.206Z,4.78
2023-05-21T16:07:58.764Z,5.50
2023-05-21T16:10:29.566Z,5.10
2023-05-21T16:12:57.840Z,4.63
2023-05-21T16:15:26.601Z,4.82
2023-05-21T16:17:54.870Z,4.88
2023-05-21T16:20:23.013Z,5.47
2023-05-21T16:22:51.456Z,5.65
2023-05-21T16:25:21.219Z,5.90
2023-05-21T16:27:49.912Z,5.72
2023-05-21T16:30:18.445Z,5.90
2023-05-21T16:32:46.750Z,5.90
2023-05-21T16:35:15.080Z,5.82
2023-05-21T16:37:43.337Z,6.47
2023-05-21T16:40:13.211Z,7.40
2023-05-21T16:42:43.445Z,6.18
2023-05-21T16:45:19.479Z,6.50
2023-05-21T16:47:48.939Z,6.45
2023-05-21T16:50:17.984Z,6.72
2023-05-21T16:52:46.385Z,7.22
2023-05-21T16:55:14.615Z,7.35
2023-05-21T16:57:44.556Z,7.70
2023-05-21T17:00:15.680Z,6.80
2023-05-21T17:02:44.115Z,7.20
2023-05-21T17:05:12.560Z,7.78
2023-05-21T17:07:40.831Z,7.45
2023-05-21T17:10:10.518Z,7.80
2023-05-21T17:12:39.016Z,8.02
2023-05-21T17:15:09.561Z,9.15
2023-05-21T17:17:37.890Z,8.65
2023-05-21T17:20:08.071Z,9.35
2023-05-21T17:22:36.393Z,11.48
2023-05-21T17:25:04.766Z,14.32
2023-05-21T17:27:33.096Z,15.93
2023-05-21T17:30:01.399Z,11.15
2023-05-21T17:32:31.219Z,11.43
2023-05-21T17:34:59.661Z,13.55
2023-05-21T17:37:28.106Z,12.23
2023-05-21T17:39:57.648Z,19.20
2023-05-21T17:42:26.165Z,10.15
2023-05-21T17:44:55.226Z,10.50
2023-05-21T17:47:23.463Z,10.65
2023-05-21T17:49:53.359Z,11.63
2023-05-21T17:52:21.629Z,11.60
2023-05-21T17:54:49.805Z,11.43
2023-05-21T17:57:19.944Z,12.10
2023-05-21T17:59:48.128Z,12.65
2023-05-21T18:02:16.342Z,13.23
2023-05-21T18:04:44.462Z,21.08
2023-05-21T18:07:13.907Z,11.98
2023-05-21T18:09:42.800Z,13.63
2023-05-21T18:12:11.026Z,14.32
2023-05-21T18:14:39.147Z,13.60
2023-05-21T18:17:07.530Z,11.48
2023-05-21T18:19:35.970Z,10.68
2023-05-21T18:22:04.986Z,13.63
2023-05-21T18:24:36.433Z,11.35
2023-05-21T18:27:04.842Z,12.20
2023-05-21T18:29:33.166Z,11.63
2023-05-21T18:32:01.610Z,11.23
2023-05-21T18:34:30.089Z,14.25
2023-05-21T18:36:58.910Z,12.57
2023-05-21T18:39:28.032Z,16.30
2023-05-21T18:44:29.734Z,12.18
2023-05-21T18:46:58.677Z,11.30
2023-05-21T18:49:27.577Z,10.65
2023-05-21T18:51:55.889Z,9.93
2023-05-21T18:54:24.057Z,10.98
2023-05-21T18:56:52.264Z,9.98
2023-05-21T18:59:21.802Z,11.27
2023-05-21T19:01:50.044Z,9.80
2023-05-21T19:04:19.832Z,10.82
2023-05-21T19:06:48.194Z,10.35
2023-05-21T19:09:16.536Z,10.43
2023-05-21T19:11:45.252Z,10.25
2023-05-21T19:14:13.647Z,10.77
2023-05-21T19:16:43.366Z,11.10
2023-05-21T19:19:11.699Z,16.83
2023-05-21T19:21:40.953Z,12.50
2023-05-21T19:24:11.893Z,11.30
2023-05-21T19:26:40.456Z,11.18
2023-05-21T19:29:09.534Z,11.38
2023-05-21T19:31:39.605Z,11.50
2023-05-21T19:34:10.851Z,12.15
2023-05-21T19:36:52.125Z,11.52
2023-05-21T19:39:21.536Z,12.68
2023-05-21T19:41:49.861Z,11.50
2023-05-21T19:44:21.553Z,11.80
2023-05-21T19:46:50.477Z,12.65
2023-05-21T19:49:29.284Z,12.02
2023-05-21T19:52:00.565Z,11.80
2023-05-21T19:54:29.514Z,12.00
2023-05-21T19:56:59.952Z,12.50
2023-05-21T19:59:30.372Z,12.60
2023-05-21T20:02:00.743Z,12.43
2023-05-21T20:04:34.192Z,12.30
2023-05-21T20:07:03.848Z,12.85
2023-05-21T20:09:32.725Z,13.52
2023-05-21T20:12:02.596Z,13.20
2023-05-21T20:14:33.972Z,12.82
2023-05-21T20:17:07.347Z,13.05
2023-05-21T20:19:39.357Z,12.68
2023-05-21T20:22:08.430Z,14.05
2023-05-21T20:24:37.941Z,14.40
2023-05-21T20:27:08.153Z,13.63
2023-05-21T20:29:37.573Z,13.20
2023-05-21T20:32:13.313Z,13.32
2023-05-21T20:35:01.586Z,13.10
2023-05-21T20:37:34.846Z,14.32
2023-05-21T20:40:04.584Z,14.65
2023-05-21T20:42:35.091Z,14.75
2023-05-21T20:45:04.620Z,14.32
2023-05-21T20:47:33.853Z,14.50
2023-05-21T20:50:04.082Z,16.55
2023-05-21T20:52:32.671Z,15.50
2023-05-21T20:55:01.100Z,16.00
2023-05-21T20:57:30.133Z,14.98
2023-05-21T20:59:58.643Z,16.98
2023-05-21T21:02:28.537Z,16.00
2023-05-21T21:04:58.049Z,17.75
2023-05-21T21:07:30.150Z,16.77
2023-05-21T21:09:58.629Z,16.88
2023-05-21T21:12:27.171Z,16.15
2023-05-21T21:14:58.050Z,16.23
2023-05-21T21:17:26.816Z,17.25
2023-05-21T21:19:55.421Z,16.63
2023-05-21T21:22:23.962Z,16.50
2023-05-21T21:24:53.870Z,16.83
2023-05-21T21:27:24.659Z,17.58
2023-05-21T21:29:53.036Z,18.20
2023-05-21T21:32:22.255Z,16.10
2023-05-21T21:34:50.890Z,16.55
2023-05-21T21:37:19.624Z,18.65
2023-05-21T21:39:48.555Z,17.75
2023-05-21T21:42:18.779Z,17.48
2023-05-21T21:44:47.226Z,18.90
2023-05-21T21:47:15.873Z,17.75
2023-05-21T21:49:44.227Z,18.02
2023-05-21T21:52:14.747Z,18.65
2023-05-21T21:54:43.562Z,17.27
2023-05-21T21:57:12.165Z,17.73
2023-05-21T21:59:43.497Z,18.67
2023-05-21T22:02:12.478Z,19.80
2023-05-21T22:04:40.997Z,20.23
2023-05-21T22:07:10.933Z,18.27
2023-05-21T22:09:39.398Z,19.00
2023-05-21T22:12:08.784Z,19.17
2023-05-21T22:14:37.466Z,20.40
2023-05-21T22:17:08.772Z,20.92
2023-05-21T22:19:37.278Z,22.27
2023-05-21T22:22:06.389Z,21.10
2023-05-21T22:24:34.674Z,21.40
2023-05-21T22:27:03.748Z,22.52
2023-05-21T22:29:32.631Z,21.50
2023-05-21T22:32:02.907Z,22.13
2023-05-21T22:34:38.199Z,22.60
2023-05-21T22:37:07.932Z,24.27
2023-05-21T22:39:36.931Z,25.38
2023-05-21T22:42:07.440Z,26.17
2023-05-21T22:44:36.537Z,24.05
2023-05-21T22:47:07.065Z,22.92
2023-05-21T22:49:38.523Z,25.08
2023-05-21T22:52:10.134Z,24.38
2023-05-21T22:54:39.426Z,24.38
2023-05-21T22:57:09.193Z,25.58
2023-05-21T22:59:38.687Z,26.10
2023-05-21T23:02:08.194Z,26.98
2023-05-21T23:04:43.743Z,26.20
2023-05-21T23:07:13.763Z,26.83
2023-05-21T23:09:42.710Z,26.45
2023-05-21T23:12:12.004Z,30.80
2023-05-21T23:14:41.130Z,28.45
2023-05-21T23:17:13.088Z,29.40
2023-05-21T23:19:44.238Z,28.67
2023-05-21T23:22:13.369Z,28.35
2023-05-21T23:24:42.422Z,28.75
2023-05-21T23:27:10.865Z,29.25
2023-05-21T23:29:39.606Z,27.38
2023-05-21T23:32:09.127Z,29.70
2023-05-21T23:34:37.638Z,29.83
2023-05-21T23:37:09.593Z,27.38
2023-05-21T23:39:38.569Z,29.85
2023-05-21T23:42:08.512Z,30.05
2023-05-21T23:44:37.673Z,29.23
2023-05-21T23:47:06.968Z,28.20
2023-05-21T23:49:35.915Z,26.30
2023-05-21T23:52:04.971Z,27.75
2023-05-21T23:54:35.742Z,25.52
2023-05-21T23:57:05.151Z,26.45
2023-05-21T23:59:34.169Z,26.02
